sensor_id;sensor_type;location;lat;lon;timestamp;pressure;altitude;pressure_sealevel;temperature;humidity
45523;BME280;31254;51.680;5.394;2022-08-19T00:02:11;101352.06;;;20.28;78.93
45523;BME280;31254;51.680;5.394;2022-08-19T00:04:38;101352.25;;;20.27;79.21
45523;BME280;31254;51.680;5.394;2022-08-19T00:07:06;101350.94;;;20.23;79.27
45523;BME280;31254;51.680;5.394;2022-08-19T00:09:33;101347.28;;;20.16;79.27
45523;BME280;31254;51.680;5.394;2022-08-19T00:12:00;101360.09;;;20.17;79.44
45523;BME280;31254;51.680;5.394;2022-08-19T00:14:28;101354.94;;;20.14;79.46
45523;BME280;31254;51.680;5.394;2022-08-19T00:16:58;101352.13;;;20.07;79.56
45523;BME280;31254;51.680;5.394;2022-08-19T00:19:25;101348.03;;;20.03;79.58
45523;BME280;31254;51.680;5.394;2022-08-19T00:21:52;101356.34;;;20.03;79.68
45523;BME280;31254;51.680;5.394;2022-08-19T00:24:18;101352.47;;;19.97;79.82
45523;BME280;31254;51.680;5.394;2022-08-19T00:26:46;101343.88;;;19.92;80.03
45523;BME280;31254;51.680;5.394;2022-08-19T00:29:17;101350.69;;;19.89;80.32
45523;BME280;31254;51.680;5.394;2022-08-19T00:31:44;101351.09;;;19.86;80.75
45523;BME280;31254;51.680;5.394;2022-08-19T00:34:12;101344.63;;;19.79;81.00
45523;BME280;31254;51.680;5.394;2022-08-19T00:36:46;101358.06;;;19.82;81.12
45523;BME280;31254;51.680;5.394;2022-08-19T00:39:16;101349.50;;;19.77;81.30
45523;BME280;31254;51.680;5.394;2022-08-19T00:41:44;101354.00;;;19.78;81.52
45523;BME280;31254;51.680;5.394;2022-08-19T00:44:19;101345.22;;;19.75;81.36
45523;BME280;31254;51.680;5.394;2022-08-19T00:46:54;101357.13;;;19.75;81.57
45523;BME280;31254;51.680;5.394;2022-08-19T00:49:43;101358.56;;;19.71;81.24
45523;BME280;31254;51.680;5.394;2022-08-19T00:52:16;101355.78;;;19.71;81.70
45523;BME280;31254;51.680;5.394;2022-08-19T00:54:47;101346.38;;;19.65;81.55
45523;BME280;31254;51.680;5.394;2022-08-19T00:57:22;101345.31;;;19.66;81.83
45523;BME280;31254;51.680;5.394;2022-08-19T00:59:54;101341.91;;;19.64;81.62
45523;BME280;31254;51.680;5.394;2022-08-19T01:02:29;101342.28;;;19.61;81.74
45523;BME280;31254;51.680;5.394;2022-08-19T01:04:56;101349.94;;;19.59;81.61
45523;BME280;31254;51.680;5.394;2022-08-19T01:07:23;101349.69;;;19.54;81.84
45523;BME280;31254;51.680;5.394;2022-08-19T01:09:50;101344.94;;;19.48;82.05
45523;BME280;31254;51.680;5.394;2022-08-19T01:12:21;101347.03;;;19.46;82.15
45523;BME280;31254;51.680;5.394;2022-08-19T01:14:50;101352.56;;;19.46;82.53
45523;BME280;31254;51.680;5.394;2022-08-19T01:17:18;101352.56;;;19.46;82.85
45523;BME280;31254;51.680;5.394;2022-08-19T01:19:49;101340.38;;;19.40;82.88
45523;BME280;31254;51.680;5.394;2022-08-19T01:22:35;101349.06;;;19.37;82.87
45523;BME280;31254;51.680;5.394;2022-08-19T01:25:06;101357.84;;;19.41;83.09
45523;BME280;31254;51.680;5.394;2022-08-19T01:27:42;101364.41;;;19.40;83.17
45523;BME280;31254;51.680;5.394;2022-08-19T01:30:14;101355.47;;;19.38;83.23
45523;BME280;31254;51.680;5.394;2022-08-19T01:32:43;101359.28;;;19.36;83.30
45523;BME280;31254;51.680;5.394;2022-08-19T01:35:12;101322.03;;;19.17;83.24
45523;BME280;31254;51.680;5.394;2022-08-19T01:40:16;101364.09;;;19.28;83.53
45523;BME280;31254;51.680;5.394;2022-08-19T01:42:42;101356.19;;;19.25;83.38
45523;BME280;31254;51.680;5.394;2022-08-19T01:45:14;101354.44;;;19.24;83.54
45523;BME280;31254;51.680;5.394;2022-08-19T01:47:40;101350.66;;;19.25;83.46
45523;BME280;31254;51.680;5.394;2022-08-19T01:50:08;101359.13;;;19.23;83.84
45523;BME280;31254;51.680;5.394;2022-08-19T01:52:37;101349.69;;;19.17;83.78
45523;BME280;31254;51.680;5.394;2022-08-19T01:55:13;101350.19;;;19.21;84.04
45523;BME280;31254;51.680;5.394;2022-08-19T01:57:48;101339.13;;;19.21;84.17
45523;BME280;31254;51.680;5.394;2022-08-19T02:00:18;101328.44;;;19.18;84.18
45523;BME280;31254;51.680;5.394;2022-08-19T02:02:46;101343.31;;;19.17;84.16
45523;BME280;31254;51.680;5.394;2022-08-19T02:05:13;101341.78;;;19.14;84.67
45523;BME280;31254;51.680;5.394;2022-08-19T02:07:40;101318.59;;;18.94;84.66
45523;BME280;31254;51.680;5.394;2022-08-19T02:10:12;101350.28;;;19.13;84.59
45523;BME280;31254;51.680;5.394;2022-08-19T02:12:44;101363.44;;;19.11;84.58
45523;BME280;31254;51.680;5.394;2022-08-19T02:15:13;101354.50;;;19.09;84.57
45523;BME280;31254;51.680;5.394;2022-08-19T02:17:40;101356.78;;;19.05;84.58
45523;BME280;31254;51.680;5.394;2022-08-19T02:20:10;101360.22;;;19.07;84.58
45523;BME280;31254;51.680;5.394;2022-08-19T02:22:36;101369.75;;;19.05;84.60
45523;BME280;31254;51.680;5.394;2022-08-19T02:25:03;101372.69;;;19.03;84.69
45523;BME280;31254;51.680;5.394;2022-08-19T02:27:31;101366.91;;;18.98;84.55
45523;BME280;31254;51.680;5.394;2022-08-19T02:29:58;101362.81;;;18.94;84.94
45523;BME280;31254;51.680;5.394;2022-08-19T02:32:27;101358.06;;;18.88;84.67
45523;BME280;31254;51.680;5.394;2022-08-19T02:34:53;101293.94;;;18.48;85.16
45523;BME280;31254;51.680;5.394;2022-08-19T02:37:22;101361.66;;;18.88;85.31
45523;BME280;31254;51.680;5.394;2022-08-19T02:40:08;101366.88;;;18.83;84.84
45523;BME280;31254;51.680;5.394;2022-08-19T02:42:38;101367.25;;;18.80;85.41
45523;BME280;31254;51.680;5.394;2022-08-19T02:45:04;101374.91;;;18.78;85.49
45523;BME280;31254;51.680;5.394;2022-08-19T02:47:32;101371.28;;;18.77;85.54
45523;BME280;31254;51.680;5.394;2022-08-19T02:50:00;101364.41;;;18.73;85.78
45523;BME280;31254;51.680;5.394;2022-08-19T02:52:27;101366.53;;;18.71;86.15
45523;BME280;31254;51.680;5.394;2022-08-19T02:54:54;101378.81;;;18.69;86.06
45523;BME280;31254;51.680;5.394;2022-08-19T02:57:24;101376.91;;;18.69;86.09
45523;BME280;31254;51.680;5.394;2022-08-19T02:59:50;101361.66;;;18.58;86.16
45523;BME280;31254;51.680;5.394;2022-08-19T03:02:17;101380.91;;;18.67;86.09
45523;BME280;31254;51.680;5.394;2022-08-19T03:04:43;101373.38;;;18.60;86.41
45523;BME280;31254;51.680;5.394;2022-08-19T03:07:14;101362.03;;;18.55;86.38
45523;BME280;31254;51.680;5.394;2022-08-19T03:09:41;101370.22;;;18.63;86.50
45523;BME280;31254;51.680;5.394;2022-08-19T03:12:09;101357.38;;;18.56;86.51
45523;BME280;31254;51.680;5.394;2022-08-19T03:14:36;101365.94;;;18.61;86.22
45523;BME280;31254;51.680;5.394;2022-08-19T03:17:03;101359.66;;;18.52;86.56
45523;BME280;31254;51.680;5.394;2022-08-19T03:19:34;101360.31;;;18.54;86.80
45523;BME280;31254;51.680;5.394;2022-08-19T03:22:01;101371.19;;;18.56;86.67
45523;BME280;31254;51.680;5.394;2022-08-19T03:24:28;101370.13;;;18.57;86.86
45523;BME280;31254;51.680;5.394;2022-08-19T03:26:55;101373.09;;;18.55;86.88
45523;BME280;31254;51.680;5.394;2022-08-19T03:29:27;101376.69;;;18.56;86.99
45523;BME280;31254;51.680;5.394;2022-08-19T03:32:01;101372.06;;;18.56;86.73
45523;BME280;31254;51.680;5.394;2022-08-19T03:34:31;101359.84;;;18.51;86.59
45523;BME280;31254;51.680;5.394;2022-08-19T03:37:05;101367.75;;;18.54;86.69
45523;BME280;31254;51.680;5.394;2022-08-19T03:39:33;101379.84;;;18.53;86.63
45523;BME280;31254;51.680;5.394;2022-08-19T03:42:00;101376.50;;;18.42;86.71
45523;BME280;31254;51.680;5.394;2022-08-19T03:44:48;101377.34;;;18.43;86.83
45523;BME280;31254;51.680;5.394;2022-08-19T03:47:15;101385.28;;;18.46;86.69
45523;BME280;31254;51.680;5.394;2022-08-19T03:49:42;101371.84;;;18.43;86.93
45523;BME280;31254;51.680;5.394;2022-08-19T03:52:09;101369.06;;;18.43;86.78
45523;BME280;31254;51.680;5.394;2022-08-19T03:54:36;101366.69;;;18.40;86.85
45523;BME280;31254;51.680;5.394;2022-08-19T03:57:05;101363.91;;;18.40;86.71
45523;BME280;31254;51.680;5.394;2022-08-19T03:59:34;101359.66;;;18.37;86.58
45523;BME280;31254;51.680;5.394;2022-08-19T04:02:06;101361.56;;;18.37;86.53
45523;BME280;31254;51.680;5.394;2022-08-19T04:04:39;101356.78;;;18.31;86.55
45523;BME280;31254;51.680;5.394;2022-08-19T04:07:06;101356.97;;;18.29;86.58
45523;BME280;31254;51.680;5.394;2022-08-19T04:09:34;101359.06;;;18.27;86.56
45523;BME280;31254;51.680;5.394;2022-08-19T04:12:02;101371.81;;;18.28;86.73
45523;BME280;31254;51.680;5.394;2022-08-19T04:14:31;101366.13;;;18.30;86.53
45523;BME280;31254;51.680;5.394;2022-08-19T04:16:59;101366.13;;;18.30;86.41
45523;BME280;31254;51.680;5.394;2022-08-19T04:19:29;101364.56;;;18.27;86.50
45523;BME280;31254;51.680;5.394;2022-08-19T04:21:58;101361.53;;;18.22;86.64
45523;BME280;31254;51.680;5.394;2022-08-19T04:24:25;101363.44;;;18.21;86.54
45523;BME280;31254;51.680;5.394;2022-08-19T04:26:52;101361.72;;;18.20;86.54
45523;BME280;31254;51.680;5.394;2022-08-19T04:29:21;101356.56;;;18.17;86.38
45523;BME280;31254;51.680;5.394;2022-08-19T04:31:52;101357.44;;;18.18;86.34
45523;BME280;31254;51.680;5.394;2022-08-19T04:34:21;101355.72;;;18.17;86.37
45523;BME280;31254;51.680;5.394;2022-08-19T04:36:52;101350.38;;;18.15;86.25
45523;BME280;31254;51.680;5.394;2022-08-19T04:39:23;101341.91;;;18.17;86.27
45523;BME280;31254;51.680;5.394;2022-08-19T04:42:10;101355.72;;;18.17;86.24
45523;BME280;31254;51.680;5.394;2022-08-19T04:44:58;101358.84;;;18.14;86.34
45523;BME280;31254;51.680;5.394;2022-08-19T04:47:30;101351.44;;;18.14;86.19
45523;BME280;31254;51.680;5.394;2022-08-19T04:50:18;101366.09;;;18.15;86.15
45523;BME280;31254;51.680;5.394;2022-08-19T04:52:45;101364.38;;;18.14;86.13
45523;BME280;31254;51.680;5.394;2022-08-19T04:55:12;101366.09;;;18.15;86.15
45523;BME280;31254;51.680;5.394;2022-08-19T04:57:39;101371.91;;;18.20;86.28
45523;BME280;31254;51.680;5.394;2022-08-19T05:00:08;101368.47;;;18.18;85.90
45523;BME280;31254;51.680;5.394;2022-08-19T05:02:37;101373.44;;;18.22;86.05
45523;BME280;31254;51.680;5.394;2022-08-19T05:05:10;101363.06;;;18.24;85.81
45523;BME280;31254;51.680;5.394;2022-08-19T05:07:36;101375.25;;;18.30;85.73
45523;BME280;31254;51.680;5.394;2022-08-19T05:10:05;101377.06;;;18.38;85.59
45523;BME280;31254;51.680;5.394;2022-08-19T05:12:31;101385.66;;;18.43;85.25
45523;BME280;31254;51.680;5.394;2022-08-19T05:14:58;101384.22;;;18.47;85.18
45523;BME280;31254;51.680;5.394;2022-08-19T05:17:29;101391.41;;;18.56;84.84
45523;BME280;31254;51.680;5.394;2022-08-19T05:20:07;101398.00;;;19.00;83.55
45523;BME280;31254;51.680;5.394;2022-08-19T05:22:52;101399.97;;;19.21;82.67
45523;BME280;31254;51.680;5.394;2022-08-19T05:25:24;101403.66;;;19.28;82.69
45523;BME280;31254;51.680;5.394;2022-08-19T05:27:51;101405.25;;;19.38;82.08
45523;BME280;31254;51.680;5.394;2022-08-19T05:30:23;101413.53;;;19.74;80.92
45523;BME280;31254;51.680;5.394;2022-08-19T05:33:12;101409.31;;;20.50;78.51
45523;BME280;31254;51.680;5.394;2022-08-19T05:35:39;101412.25;;;21.05;76.39
45523;BME280;31254;51.680;5.394;2022-08-19T05:38:09;101414.53;;;21.43;75.21
45523;BME280;31254;51.680;5.394;2022-08-19T05:40:40;101399.25;;;21.73;73.53
45523;BME280;31254;51.680;5.394;2022-08-19T05:43:08;101404.66;;;22.15;72.37
45523;BME280;31254;51.680;5.394;2022-08-19T05:45:39;101398.03;;;22.43;71.38
45523;BME280;31254;51.680;5.394;2022-08-19T05:48:08;101412.16;;;22.55;71.14
45523;BME280;31254;51.680;5.394;2022-08-19T05:50:38;101406.56;;;22.75;70.35
45523;BME280;31254;51.680;5.394;2022-08-19T05:53:05;101408.19;;;23.09;69.17
45523;BME280;31254;51.680;5.394;2022-08-19T05:55:32;101411.41;;;23.51;67.82
45523;BME280;31254;51.680;5.394;2022-08-19T05:57:58;101408.16;;;24.00;66.35
45523;BME280;31254;51.680;5.394;2022-08-19T06:00:27;101384.84;;;24.19;64.93
45523;BME280;31254;51.680;5.394;2022-08-19T06:02:59;101412.28;;;24.41;64.87
45523;BME280;31254;51.680;5.394;2022-08-19T06:05:38;101415.25;;;23.57;67.46
45523;BME280;31254;51.680;5.394;2022-08-19T06:08:17;101412.94;;;22.95;69.39
45523;BME280;31254;51.680;5.394;2022-08-19T06:10:45;101405.63;;;23.08;69.30
45523;BME280;31254;51.680;5.394;2022-08-19T06:13:14;101399.84;;;24.18;65.81
45523;BME280;31254;51.680;5.394;2022-08-19T06:15:40;101397.16;;;25.17;62.54
45523;BME280;31254;51.680;5.394;2022-08-19T06:18:13;101392.47;;;26.33;59.02
45523;BME280;31254;51.680;5.394;2022-08-19T06:20:43;101390.59;;;27.09;56.94
45523;BME280;31254;51.680;5.394;2022-08-19T06:23:21;101385.53;;;27.64;55.28
45523;BME280;31254;51.680;5.394;2022-08-19T06:25:49;101382.72;;;27.93;54.60
45523;BME280;31254;51.680;5.394;2022-08-19T06:28:16;101396.81;;;26.99;56.85
45523;BME280;31254;51.680;5.394;2022-08-19T06:30:43;101401.78;;;25.72;59.99
45523;BME280;31254;51.680;5.394;2022-08-19T06:33:10;101404.91;;;24.78;62.88
45523;BME280;31254;51.680;5.394;2022-08-19T06:35:40;101402.38;;;24.26;64.65
45523;BME280;31254;51.680;5.394;2022-08-19T06:38:10;101406.09;;;23.82;66.09
45523;BME280;31254;51.680;5.394;2022-08-19T06:40:37;101402.97;;;23.33;67.46
45523;BME280;31254;51.680;5.394;2022-08-19T06:43:04;101401.09;;;23.20;68.13
45523;BME280;31254;51.680;5.394;2022-08-19T06:45:36;101404.34;;;23.10;68.10
45523;BME280;31254;51.680;5.394;2022-08-19T06:48:05;101395.78;;;23.12;67.76
45523;BME280;31254;51.680;5.394;2022-08-19T06:50:31;101397.88;;;23.23;67.39
45523;BME280;31254;51.680;5.394;2022-08-19T06:52:58;101407.56;;;23.07;68.10
45523;BME280;31254;51.680;5.394;2022-08-19T06:55:32;101393.69;;;22.87;69.02
45523;BME280;31254;51.680;5.394;2022-08-19T06:58:02;101401.47;;;22.58;69.35
45523;BME280;31254;51.680;5.394;2022-08-19T07:00:29;101407.00;;;22.25;70.56
45523;BME280;31254;51.680;5.394;2022-08-19T07:02:59;101412.78;;;22.10;71.26
45523;BME280;31254;51.680;5.394;2022-08-19T07:05:38;101402.09;;;22.00;71.56
45523;BME280;31254;51.680;5.394;2022-08-19T07:08:10;101417.88;;;21.86;72.00
45523;BME280;31254;51.680;5.394;2022-08-19T07:10:42;101423.81;;;21.70;72.75
45523;BME280;31254;51.680;5.394;2022-08-19T07:13:09;101423.38;;;21.60;73.36
45523;BME280;31254;51.680;5.394;2022-08-19T07:15:36;101425.72;;;21.56;73.68
45523;BME280;31254;51.680;5.394;2022-08-19T07:18:05;101424.38;;;21.45;73.80
45523;BME280;31254;51.680;5.394;2022-08-19T07:20:31;101417.31;;;21.43;73.99
45523;BME280;31254;51.680;5.394;2022-08-19T07:22:59;101415.25;;;21.51;73.87
45523;BME280;31254;51.680;5.394;2022-08-19T07:25:32;101421.66;;;21.59;73.50
45523;BME280;31254;51.680;5.394;2022-08-19T07:27:59;101417.00;;;21.66;73.17
45523;BME280;31254;51.680;5.394;2022-08-19T07:30:27;101432.16;;;21.77;73.21
45523;BME280;31254;51.680;5.394;2022-08-19T07:32:54;101434.75;;;21.85;72.95
45523;BME280;31254;51.680;5.394;2022-08-19T07:35:25;101439.22;;;21.79;72.74
45523;BME280;31254;51.680;5.394;2022-08-19T07:37:52;101442.00;;;21.72;73.25
45523;BME280;31254;51.680;5.394;2022-08-19T07:40:19;101436.47;;;21.79;73.21
45523;BME280;31254;51.680;5.394;2022-08-19T07:42:48;101421.13;;;21.97;72.70
45523;BME280;31254;51.680;5.394;2022-08-19T07:45:14;101435.00;;;22.03;72.86
45523;BME280;31254;51.680;5.394;2022-08-19T07:47:42;101426.00;;;21.95;72.86
45523;BME280;31254;51.680;5.394;2022-08-19T07:50:17;101429.22;;;21.91;73.09
45523;BME280;31254;51.680;5.394;2022-08-19T07:52:45;101434.78;;;21.91;73.57
45523;BME280;31254;51.680;5.394;2022-08-19T07:55:18;101442.03;;;22.06;73.21
45523;BME280;31254;51.680;5.394;2022-08-19T07:58:04;101447.81;;;22.04;72.99
45523;BME280;31254;51.680;5.394;2022-08-19T08:00:31;101455.28;;;21.97;73.29
45523;BME280;31254;51.680;5.394;2022-08-19T08:02:58;101462.09;;;21.95;73.50
45523;BME280;31254;51.680;5.394;2022-08-19T08:05:27;101455.50;;;21.89;73.74
45523;BME280;31254;51.680;5.394;2022-08-19T08:08:12;101453.56;;;21.96;73.67
45523;BME280;31254;51.680;5.394;2022-08-19T08:11:16;101459.81;;;22.12;73.08
45523;BME280;31254;51.680;5.394;2022-08-19T08:13:45;101463.00;;;22.15;73.08
45523;BME280;31254;51.680;5.394;2022-08-19T08:16:25;101457.44;;;22.22;72.95
45523;BME280;31254;51.680;5.394;2022-08-19T08:18:57;101459.59;;;22.20;73.09
45523;BME280;31254;51.680;5.394;2022-08-19T08:21:26;101441.66;;;22.22;72.81
45523;BME280;31254;51.680;5.394;2022-08-19T08:23:57;101464.75;;;22.43;72.31
45523;BME280;31254;51.680;5.394;2022-08-19T08:26:29;101470.31;;;22.63;71.60
45523;BME280;31254;51.680;5.394;2022-08-19T08:28:59;101470.31;;;22.56;71.70
45523;BME280;31254;51.680;5.394;2022-08-19T08:31:28;101479.72;;;22.55;71.59
45523;BME280;31254;51.680;5.394;2022-08-19T08:33:55;101480.16;;;22.52;71.86
45523;BME280;31254;51.680;5.394;2022-08-19T08:36:21;101484.88;;;22.45;72.16
45523;BME280;31254;51.680;5.394;2022-08-19T08:38:50;101478.03;;;22.41;72.29
45523;BME280;31254;51.680;5.394;2022-08-19T08:44:03;101484.41;;;22.41;72.46
45523;BME280;31254;51.680;5.394;2022-08-19T08:46:51;101492.13;;;22.39;72.45
45523;BME280;31254;51.680;5.394;2022-08-19T08:49:48;101497.25;;;22.42;72.49
45523;BME280;31254;51.680;5.394;2022-08-19T08:54:48;101491.50;;;22.44;72.46
45523;BME280;31254;51.680;5.394;2022-08-19T08:57:38;101499.41;;;22.34;72.76
45523;BME280;31254;51.680;5.394;2022-08-19T09:00:12;101500.63;;;22.24;73.27
45523;BME280;31254;51.680;5.394;2022-08-19T09:02:42;101501.91;;;22.28;73.07
45523;BME280;31254;51.680;5.394;2022-08-19T09:05:10;101495.97;;;22.32;73.14
45523;BME280;31254;51.680;5.394;2022-08-19T09:08:02;101496.38;;;22.35;73.30
45523;BME280;31254;51.680;5.394;2022-08-19T09:13:31;101494.69;;;22.41;72.91
45523;BME280;31254;51.680;5.394;2022-08-19T09:16:12;101488.28;;;22.40;72.98
45523;BME280;31254;51.680;5.394;2022-08-19T09:18:45;101493.84;;;22.60;72.64
45523;BME280;31254;51.680;5.394;2022-08-19T09:21:15;101494.69;;;22.74;72.23
45523;BME280;31254;51.680;5.394;2022-08-19T09:23:42;101490.81;;;22.75;71.86
45523;BME280;31254;51.680;5.394;2022-08-19T09:26:11;101488.25;;;22.80;72.18
45523;BME280;31254;51.680;5.394;2022-08-19T09:28:43;101489.34;;;22.79;71.95
45523;BME280;31254;51.680;5.394;2022-08-19T09:31:19;101488.91;;;22.89;72.03
45523;BME280;31254;51.680;5.394;2022-08-19T09:33:46;101495.94;;;22.98;71.47
45523;BME280;31254;51.680;5.394;2022-08-19T09:36:15;101492.50;;;22.96;71.63
45523;BME280;31254;51.680;5.394;2022-08-19T09:39:00;101498.94;;;22.97;71.89
45523;BME280;31254;51.680;5.394;2022-08-19T09:41:27;101499.38;;;22.94;71.55
45523;BME280;31254;51.680;5.394;2022-08-19T09:43:56;101497.44;;;22.94;71.78
45523;BME280;31254;51.680;5.394;2022-08-19T09:46:28;101498.28;;;23.01;71.85
45523;BME280;31254;51.680;5.394;2022-08-19T09:48:59;101507.91;;;23.06;71.38
45523;BME280;31254;51.680;5.394;2022-08-19T09:51:32;101507.50;;;23.09;71.58
45523;BME280;31254;51.680;5.394;2022-08-19T09:54:02;101494.84;;;23.06;71.58
45523;BME280;31254;51.680;5.394;2022-08-19T09:56:30;101515.41;;;23.05;71.62
45523;BME280;31254;51.680;5.394;2022-08-19T09:58:58;101506.19;;;22.98;71.64
45523;BME280;31254;51.680;5.394;2022-08-19T10:01:27;101512.84;;;22.97;71.81
45523;BME280;31254;51.680;5.394;2022-08-19T10:03:57;101516.69;;;23.03;71.76
45523;BME280;31254;51.680;5.394;2022-08-19T10:06:25;101506.41;;;23.03;71.55
45523;BME280;31254;51.680;5.394;2022-08-19T10:09:12;101513.06;;;23.09;71.48
45523;BME280;31254;51.680;5.394;2022-08-19T10:11:40;101504.28;;;23.05;71.47
45523;BME280;31254;51.680;5.394;2022-08-19T10:14:20;101504.50;;;23.04;70.83
45523;BME280;31254;51.680;5.394;2022-08-19T10:16:50;101513.28;;;23.07;71.29
45523;BME280;31254;51.680;5.394;2022-08-19T10:19:20;101507.28;;;23.17;71.39
45523;BME280;31254;51.680;5.394;2022-08-19T10:21:54;101496.31;;;23.29;70.52
45523;BME280;31254;51.680;5.394;2022-08-19T10:24:25;101501.16;;;23.47;70.16
45523;BME280;31254;51.680;5.394;2022-08-19T10:26:54;101498.34;;;23.60;69.97
45523;BME280;31254;51.680;5.394;2022-08-19T10:29:28;101488.81;;;23.81;69.51
45523;BME280;31254;51.680;5.394;2022-08-19T10:32:00;101488.28;;;24.04;68.38
45523;BME280;31254;51.680;5.394;2022-08-19T10:34:28;101487.50;;;24.22;67.95
45523;BME280;31254;51.680;5.394;2022-08-19T10:36:56;101491.84;;;24.43;67.36
45523;BME280;31254;51.680;5.394;2022-08-19T10:39:32;101487.47;;;24.61;67.08
45523;BME280;31254;51.680;5.394;2022-08-19T10:42:09;101493.94;;;24.80;66.02
45523;BME280;31254;51.680;5.394;2022-08-19T10:44:40;101498.78;;;24.91;65.77
45523;BME280;31254;51.680;5.394;2022-08-19T10:47:06;101481.66;;;25.06;65.08
45523;BME280;31254;51.680;5.394;2022-08-19T10:49:51;101488.50;;;25.29;64.16
45523;BME280;31254;51.680;5.394;2022-08-19T10:52:44;101490.59;;;25.52;63.96
45523;BME280;31254;51.680;5.394;2022-08-19T10:55:18;101479.31;;;25.77;63.00
45523;BME280;31254;51.680;5.394;2022-08-19T10:58:10;101475.66;;;26.07;62.63
45523;BME280;31254;51.680;5.394;2022-08-19T11:00:37;101479.84;;;26.28;61.69
45523;BME280;31254;51.680;5.394;2022-08-19T11:03:03;101487.31;;;26.46;61.46
45523;BME280;31254;51.680;5.394;2022-08-19T11:05:30;101468.38;;;26.72;60.26
45523;BME280;31254;51.680;5.394;2022-08-19T11:08:05;101478.59;;;27.02;59.89
45523;BME280;31254;51.680;5.394;2022-08-19T11:10:52;101469.22;;;27.08;59.31
45523;BME280;31254;51.680;5.394;2022-08-19T11:13:21;101475.78;;;27.25;58.79
45523;BME280;31254;51.680;5.394;2022-08-19T11:15:59;101479.75;;;27.29;59.02
45523;BME280;31254;51.680;5.394;2022-08-19T11:18:34;101470.06;;;27.20;58.59
45523;BME280;31254;51.680;5.394;2022-08-19T11:21:31;101469.56;;;27.23;58.44
45523;BME280;31254;51.680;5.394;2022-08-19T11:24:03;101474.16;;;27.29;58.49
45523;BME280;31254;51.680;5.394;2022-08-19T11:26:36;101462.72;;;27.43;58.04
45523;BME280;31254;51.680;5.394;2022-08-19T11:29:04;101470.78;;;27.68;57.26
45523;BME280;31254;51.680;5.394;2022-08-19T11:31:34;101473.34;;;27.69;57.01
45523;BME280;31254;51.680;5.394;2022-08-19T11:34:05;101465.16;;;27.51;57.65
45523;BME280;31254;51.680;5.394;2022-08-19T11:36:34;101464.78;;;27.47;58.12
45523;BME280;31254;51.680;5.394;2022-08-19T11:39:05;101455.91;;;27.39;58.04
45523;BME280;31254;51.680;5.394;2022-08-19T11:41:32;101456.25;;;27.42;57.77
45523;BME280;31254;51.680;5.394;2022-08-19T11:44:00;101460.88;;;27.48;57.73
45523;BME280;31254;51.680;5.394;2022-08-19T11:46:30;101445.78;;;27.49;57.58
45523;BME280;31254;51.680;5.394;2022-08-19T11:48:58;101439.38;;;27.66;57.01
45523;BME280;31254;51.680;5.394;2022-08-19T11:51:30;101446.22;;;27.87;56.12
45523;BME280;31254;51.680;5.394;2022-08-19T11:53:59;101447.41;;;28.20;55.41
45523;BME280;31254;51.680;5.394;2022-08-19T11:56:31;101455.00;;;28.36;54.79
45523;BME280;31254;51.680;5.394;2022-08-19T11:59:00;101452.84;;;28.26;55.11
45523;BME280;31254;51.680;5.394;2022-08-19T12:01:28;101450.97;;;28.15;55.44
45523;BME280;31254;51.680;5.394;2022-08-19T12:03:56;101440.94;;;28.02;55.10
45523;BME280;31254;51.680;5.394;2022-08-19T12:06:28;101443.94;;;28.13;55.44
45523;BME280;31254;51.680;5.394;2022-08-19T12:08:59;101455.94;;;28.25;55.05
45523;BME280;31254;51.680;5.394;2022-08-19T12:11:27;101444.13;;;28.40;54.66
45523;BME280;31254;51.680;5.394;2022-08-19T12:14:02;101454.16;;;28.53;54.21
45523;BME280;31254;51.680;5.394;2022-08-19T12:16:30;101452.09;;;28.65;53.90
45523;BME280;31254;51.680;5.394;2022-08-19T12:19:00;101463.00;;;28.78;53.53
45523;BME280;31254;51.680;5.394;2022-08-19T12:21:35;101456.84;;;28.81;53.45
45523;BME280;31254;51.680;5.394;2022-08-19T12:24:05;101442.09;;;28.69;53.37
45523;BME280;31254;51.680;5.394;2022-08-19T12:26:33;101449.91;;;28.67;53.81
45523;BME280;31254;51.680;5.394;2022-08-19T12:29:19;101447.94;;;28.68;53.64
45523;BME280;31254;51.680;5.394;2022-08-19T12:31:50;101434.84;;;28.56;53.63
45523;BME280;31254;51.680;5.394;2022-08-19T12:34:17;101439.09;;;28.42;54.06
45523;BME280;31254;51.680;5.394;2022-08-19T12:36:45;101439.53;;;28.34;54.58
45523;BME280;31254;51.680;5.394;2022-08-19T12:39:16;101441.38;;;28.11;54.93
45523;BME280;31254;51.680;5.394;2022-08-19T12:41:42;101432.47;;;27.85;55.78
45523;BME280;31254;51.680;5.394;2022-08-19T12:44:21;101439.69;;;27.52;56.05
45523;BME280;31254;51.680;5.394;2022-08-19T12:46:58;101436.09;;;27.16;57.17
45523;BME280;31254;51.680;5.394;2022-08-19T12:49:30;101445.03;;;26.90;57.49
45523;BME280;31254;51.680;5.394;2022-08-19T12:52:17;101449.53;;;26.67;58.46
45523;BME280;31254;51.680;5.394;2022-08-19T12:54:48;101455.56;;;26.52;58.94
45523;BME280;31254;51.680;5.394;2022-08-19T12:57:19;101444.28;;;26.47;58.87
45523;BME280;31254;51.680;5.394;2022-08-19T12:59:46;101452.41;;;26.60;58.78
45523;BME280;31254;51.680;5.394;2022-08-19T13:02:12;101446.38;;;26.75;58.56
45523;BME280;31254;51.680;5.394;2022-08-19T13:04:39;101440.16;;;26.85;58.17
45523;BME280;31254;51.680;5.394;2022-08-19T13:07:07;101438.44;;;26.96;57.64
45523;BME280;31254;51.680;5.394;2022-08-19T13:09:35;101441.31;;;27.13;57.55
45523;BME280;31254;51.680;5.394;2022-08-19T13:12:03;101432.06;;;27.24;57.38
45523;BME280;31254;51.680;5.394;2022-08-19T13:14:34;101439.88;;;27.10;57.31
45523;BME280;31254;51.680;5.394;2022-08-19T13:17:02;101446.47;;;27.04;57.98
45523;BME280;31254;51.680;5.394;2022-08-19T13:19:31;101443.44;;;27.06;57.56
45523;BME280;31254;51.680;5.394;2022-08-19T13:21:58;101451.81;;;27.06;58.09